Time;durP1;ratioP1;P1;durP2;ratioP2;P2;SDS_P1;SDS_P2;PMS_P1;PMS_P2;Temp;Humidity;BMP_temperature;BMP_pressure;BME280_temperature;BME280_humidity;BME280_pressure;Samples;Min_cycle;Max_cycle;Signal;HPM_P1;HPM_P2
2021/03/31 00:00:29;;;;;;;19.23;7.57;;;;;;;10.77;63.25;101996.00;4985577;28;20506;-72
2021/03/31 00:03:00;;;;;;;19.05;7.88;;;;;;;10.73;63.48;101991.72;4986874;28;20065;-71
2021/03/31 00:05:27;;;;;;;15.02;7.30;;;;;;;10.69;63.56;101999.03;4983424;28;20108;-71
2021/03/31 00:07:53;;;;;;;17.92;7.68;;;;;;;10.68;63.83;101991.91;4986080;28;20064;-71
2021/03/31 00:10:29;;;;;;;22.60;9.32;;;;;;;10.63;64.18;101993.94;4985436;28;20031;-71
2021/03/31 00:12:54;;;;;;;24.55;9.38;;;;;;;10.59;64.07;101991.47;4987105;28;20117;-71
2021/03/31 00:15:21;;;;;;;17.40;8.52;;;;;;;10.53;63.71;101988.09;4987304;28;20129;-71
2021/03/31 00:17:46;;;;;;;21.45;9.40;;;;;;;10.51;63.12;101981.03;4985988;28;20034;-71
2021/03/31 00:20:14;;;;;;;16.63;6.90;;;;;;;10.45;63.01;101979.50;4985613;28;20567;-71
2021/03/31 00:22:40;;;;;;;20.98;8.07;;;;;;;10.43;63.08;101973.31;4986964;28;20126;-71
2021/03/31 00:25:06;;;;;;;23.52;8.38;;;;;;;10.40;63.43;101970.78;4988069;28;20134;-71
2021/03/31 00:27:32;;;;;;;18.98;8.02;;;;;;;10.38;63.61;101967.28;4981913;28;20046;-71
2021/03/31 00:29:57;;;;;;;18.88;8.10;;;;;;;10.39;63.80;101970.84;4985245;28;20042;-71
2021/03/31 00:32:22;;;;;;;18.90;7.72;;;;;;;10.38;63.74;101964.59;4987780;28;20042;-71
2021/03/31 00:34:48;;;;;;;20.95;7.20;;;;;;;10.48;61.70;101967.78;4988087;28;20041;-71
2021/03/31 00:37:13;;;;;;;17.92;6.93;;;;;;;10.48;61.01;101965.97;4988360;28;20076;-71
2021/03/31 00:39:39;;;;;;;13.23;6.80;;;;;;;10.44;61.91;101958.09;4987022;28;20038;-71
2021/03/31 00:42:04;;;;;;;14.93;6.82;;;;;;;10.42;62.02;101952.81;4987674;28;20038;-71
2021/03/31 00:44:30;;;;;;;16.40;7.15;;;;;;;10.38;62.98;101944.94;4969313;28;20045;-71
2021/03/31 00:46:55;;;;;;;20.73;7.47;;;;;;;10.32;63.58;101945.22;4986831;28;20114;-71
2021/03/31 00:49:21;;;;;;;16.73;7.35;;;;;;;10.24;64.48;101947.38;4981838;28;20076;-71
2021/03/31 00:51:46;;;;;;;17.33;7.35;;;;;;;10.17;65.19;101941.41;4986656;28;20053;-71
2021/03/31 00:54:12;;;;;;;18.60;6.70;;;;;;;10.13;65.69;101939.72;4985148;28;20918;-71
2021/03/31 00:56:38;;;;;;;16.80;7.40;;;;;;;10.11;66.14;101926.41;4988187;28;20022;-71
2021/03/31 00:59:03;;;;;;;21.15;6.45;;;;;;;10.11;66.45;101936.25;4987087;28;20081;-71
2021/03/31 01:01:28;;;;;;;20.23;7.57;;;;;;;10.08;66.44;101936.38;4983527;28;20656;-71
2021/03/31 01:03:54;;;;;;;14.40;6.03;;;;;;;10.06;66.44;101932.91;4986411;28;20038;-71
2021/03/31 01:06:19;;;;;;;15.02;6.38;;;;;;;10.07;66.39;101929.25;4985707;28;20049;-71
2021/03/31 01:08:45;;;;;;;20.02;7.05;;;;;;;10.03;66.17;101931.22;4987076;28;20072;-71
2021/03/31 01:11:17;;;;;;;13.98;6.47;;;;;;;10.03;66.18;101927.66;4986402;28;20555;-71
2021/03/31 01:14:05;;;;;;;23.30;7.05;;;;;;;10.02;66.01;101923.22;4977677;28;20069;-71
2021/03/31 01:16:53;;;;;;;12.95;6.25;;;;;;;10.00;66.04;101917.06;4980841;28;20026;-71
2021/03/31 01:19:44;;;;;;;10.82;6.32;;;;;;;9.95;66.30;101924.41;4984905;28;20407;-71
2021/03/31 01:22:27;;;;;;;16.13;7.00;;;;;;;9.92;66.67;101913.84;4985220;28;20038;-71
2021/03/31 01:25:03;;;;;;;13.15;6.65;;;;;;;9.89;66.84;101913.97;4984649;28;20034;-71
2021/03/31 01:27:40;;;;;;;12.50;6.30;;;;;;;9.88;67.09;101912.22;4979297;28;20030;-71
2021/03/31 01:30:26;;;;;;;17.63;5.95;;;;;;;9.84;67.48;101911.47;4985309;28;20038;-71
2021/03/31 01:33:15;;;;;;;13.38;5.82;;;;;;;9.79;67.70;101907.25;4985223;28;20034;-71
2021/03/31 01:35:41;;;;;;;18.23;5.70;;;;;;;9.72;67.92;101898.59;4981768;28;20031;-71
2021/03/31 01:38:10;;;;;;;24.05;6.60;;;;;;;9.67;68.01;101900.59;4985690;28;20022;-71
2021/03/31 01:40:41;;;;;;;12.10;5.68;;;;;;;9.66;68.30;101898.84;4986106;28;20038;-71
2021/03/31 01:43:13;;;;;;;12.20;5.63;;;;;;;9.63;68.60;101899.84;4986123;28;20044;-71
2021/03/31 01:45:40;;;;;;;13.60;6.18;;;;;;;9.59;68.65;101895.53;4979449;28;20100;-71
2021/03/31 01:48:09;;;;;;;10.02;5.50;;;;;;;9.58;68.91;101885.75;4983898;28;20050;-70
2021/03/31 01:50:37;;;;;;;11.20;5.93;;;;;;;9.55;69.06;101893.06;4984580;28;20030;-71
2021/03/31 01:53:03;;;;;;;11.00;6.03;;;;;;;9.53;69.25;101887.75;4986106;28;20027;-71
2021/03/31 01:55:30;;;;;;;11.27;5.30;;;;;;;9.51;69.57;101880.69;4986102;28;20034;-71
2021/03/31 01:57:57;;;;;;;15.85;5.95;;;;;;;9.48;69.51;101881.72;4985645;28;20117;-71
2021/03/31 02:00:23;;;;;;;10.60;5.63;;;;;;;9.47;69.40;101879.09;4968238;28;20030;-71
2021/03/31 02:02:52;;;;;;;12.95;6.45;;;;;;;9.42;69.63;101881.97;4982882;28;20034;-71
2021/03/31 02:05:18;;;;;;;15.05;6.25;;;;;;;9.39;69.90;101891.94;4985181;28;20034;-70
2021/03/31 02:07:45;;;;;;;11.50;5.95;;;;;;;9.35;70.15;101885.84;4984969;28;20030;-71
2021/03/31 02:10:13;;;;;;;13.43;6.45;;;;;;;9.32;70.43;101891.31;4976544;28;20042;-71
2021/03/31 02:12:40;;;;;;;15.13;6.32;;;;;;;9.27;70.72;101874.53;4985620;28;20061;-71
2021/03/31 02:15:07;;;;;;;14.88;6.95;;;;;;;9.25;70.69;101873.75;4986269;28;20042;-70
2021/03/31 02:17:35;;;;;;;15.25;6.72;;;;;;;9.24;70.90;101882.72;4985765;28;20030;-70
2021/03/31 02:20:02;;;;;;;17.83;5.93;;;;;;;9.21;71.09;101874.78;4973200;28;20027;-71
2021/03/31 02:22:28;;;;;;;12.18;6.43;;;;;;;9.17;71.47;101870.50;4987027;28;20041;-71
2021/03/31 02:24:54;;;;;;;10.30;6.43;;;;;;;9.15;71.53;101869.69;4985951;28;20030;-70
2021/03/31 02:27:20;;;;;;;14.05;6.53;;;;;;;9.11;71.81;101865.38;4985559;28;20035;-71
2021/03/31 02:29:47;;;;;;;13.57;6.40;;;;;;;9.08;71.96;101870.84;4984044;28;20110;-71
2021/03/31 02:32:15;;;;;;;20.23;6.85;;;;;;;9.03;72.07;101862.13;4987263;28;20030;-70
2021/03/31 02:34:42;;;;;;;12.40;6.80;;;;;;;8.98;72.32;101858.78;4985503;28;20026;-70
2021/03/31 02:37:08;;;;;;;14.45;6.30;;;;;;;8.96;72.43;101857.94;4984723;28;20151;-71
2021/03/31 02:39:39;;;;;;;16.40;6.65;;;;;;;8.95;72.63;101861.59;4984905;28;20041;-71
2021/03/31 02:42:11;;;;;;;14.02;6.13;;;;;;;8.92;72.54;101850.06;4989470;28;20060;-71
2021/03/31 02:44:42;;;;;;;11.60;5.95;;;;;;;8.90;72.60;101853.72;4985179;28;20034;-70
2021/03/31 02:47:11;;;;;;;21.08;7.38;;;;;;;8.87;72.82;101852.03;4985532;28;20042;-70
2021/03/31 02:49:39;;;;;;;13.85;6.38;;;;;;;8.84;72.97;101852.16;4977178;28;20494;-70
2021/03/31 02:52:07;;;;;;;17.75;6.95;;;;;;;8.82;73.12;101847.81;4986193;28;20038;-70
2021/03/31 02:54:32;;;;;;;16.45;6.63;;;;;;;8.79;73.22;101843.44;4988043;28;20104;-70
2021/03/31 02:56:58;;;;;;;15.07;6.53;;;;;;;8.74;73.36;101848.09;4988090;28;20038;-70
2021/03/31 02:59:23;;;;;;;21.77;7.43;;;;;;;8.70;73.46;101846.44;4988987;28;20034;-70
2021/03/31 03:01:49;;;;;;;14.93;6.50;;;;;;;8.67;74.04;101849.25;4988732;28;20407;-70
2021/03/31 03:04:15;;;;;;;14.00;6.25;;;;;;;8.66;74.18;101844.84;4987909;28;20113;-70
2021/03/31 03:06:41;;;;;;;14.52;7.05;;;;;;;8.62;74.41;101845.91;4983104;28;20471;-70
2021/03/31 03:09:08;;;;;;;16.55;6.97;;;;;;;8.60;74.67;101846.88;4986781;28;20046;-70
2021/03/31 03:11:34;;;;;;;12.27;6.30;;;;;;;8.59;74.67;101845.13;4989046;28;20423;-70
2021/03/31 03:14:05;;;;;;;16.35;7.45;;;;;;;8.58;74.65;101844.25;4987905;28;20065;-70
2021/03/31 03:16:31;;;;;;;17.77;7.05;;;;;;;8.58;74.78;101841.56;4981948;28;20049;-70
2021/03/31 03:18:58;;;;;;;15.82;6.93;;;;;;;8.53;75.15;101840.88;4988477;28;20031;-70
2021/03/31 03:21:26;;;;;;;16.27;6.35;;;;;;;8.53;75.17;101843.56;4989705;28;20073;-70
2021/03/31 03:23:52;;;;;;;13.63;5.88;;;;;;;8.50;75.33;101835.66;4988059;28;20041;-70
2021/03/31 03:26:17;;;;;;;19.00;6.50;;;;;;;8.48;75.59;101830.34;4987064;28;20030;-70
2021/03/31 03:28:48;;;;;;;13.65;6.85;;;;;;;8.48;75.81;101832.16;4988941;28;20030;-70
2021/03/31 03:31:14;;;;;;;20.70;7.03;;;;;;;8.47;75.75;101838.44;4987024;28;20042;-70
2021/03/31 03:33:40;;;;;;;15.77;6.50;;;;;;;8.44;76.04;101838.56;4989663;28;20026;-70
2021/03/31 03:36:09;;;;;;;15.50;6.57;;;;;;;8.41;76.32;101826.16;4982265;28;20058;-70
2021/03/31 03:38:35;;;;;;;15.45;6.55;;;;;;;8.41;76.31;101830.63;4986369;28;20255;-70
2021/03/31 03:41:05;;;;;;;18.55;7.13;;;;;;;8.37;76.57;101823.66;4987256;28;20607;-71
2021/03/31 03:43:31;;;;;;;13.43;6.43;;;;;;;8.33;76.53;101827.41;4981454;28;20034;-71
2021/03/31 03:45:57;;;;;;;18.13;6.63;;;;;;;8.31;76.55;101823.91;4985937;28;20041;-70
2021/03/31 03:48:23;;;;;;;16.77;6.20;;;;;;;8.32;76.39;101815.81;4988774;28;20110;-70
2021/03/31 03:50:48;;;;;;;18.85;6.63;;;;;;;8.36;76.17;101821.91;4987663;28;20539;-70
2021/03/31 03:53:14;;;;;;;15.73;6.75;;;;;;;8.30;76.58;101822.13;4986333;28;20050;-70
2021/03/31 03:55:40;;;;;;;21.10;7.85;;;;;;;8.26;76.74;101821.38;4985180;28;20025;-70
2021/03/31 03:58:09;;;;;;;16.33;6.47;;;;;;;8.25;77.03;101821.41;4985596;28;20403;-70
2021/03/31 04:00:35;;;;;;;22.35;7.00;;;;;;;8.23;77.03;101825.94;4987217;28;20121;-71
2021/03/31 04:03:01;;;;;;;17.58;7.03;;;;;;;8.23;77.22;101832.16;4984897;28;20088;-70
2021/03/31 04:05:27;;;;;;;13.05;6.40;;;;;;;8.17;77.86;101826.16;4983484;28;20042;-70
2021/03/31 04:07:54;;;;;;;18.25;6.80;;;;;;;8.15;78.02;101828.03;4983324;28;20031;-70
2021/03/31 04:10:25;;;;;;;14.90;6.22;;;;;;;8.12;78.14;101829.03;4988099;28;20030;-70
2021/03/31 04:12:51;;;;;;;17.95;6.57;;;;;;;8.09;78.15;101830.00;4991333;28;20045;-70
2021/03/31 04:15:18;;;;;;;13.48;6.30;;;;;;;8.07;78.13;101826.53;4987850;28;20613;-70
2021/03/31 04:17:45;;;;;;;17.60;6.80;;;;;;;8.04;78.18;101820.41;4987161;28;20479;-70
2021/03/31 04:20:16;;;;;;;17.42;7.13;;;;;;;8.02;78.41;101822.28;4985412;28;20116;-70
2021/03/31 04:22:42;;;;;;;16.10;7.45;;;;;;;8.00;78.82;101822.31;4988626;28;20057;-70
2021/03/31 04:25:10;;;;;;;19.33;7.47;;;;;;;7.96;78.70;101817.97;4986387;28;20034;-70
2021/03/31 04:27:36;;;;;;;17.55;7.20;;;;;;;7.97;78.97;101824.22;4986715;28;20034;-70
2021/03/31 04:30:08;;;;;;;23.17;8.70;;;;;;;7.93;79.27;101815.44;4987838;28;20034;-70
2021/03/31 04:32:34;;;;;;;23.30;8.27;;;;;;;7.91;79.11;101814.63;4982532;28;20065;-70
2021/03/31 04:35:02;;;;;;;20.58;9.00;;;;;;;7.95;79.10;101805.56;4987694;28;20439;-70
2021/03/31 04:37:28;;;;;;;16.73;7.70;;;;;;;7.89;79.07;101805.81;4963622;28;20045;-70
2021/03/31 04:39:53;;;;;;;27.27;7.80;;;;;;;7.85;79.40;101806.81;4987621;28;20427;-70
2021/03/31 04:42:19;;;;;;;18.77;7.63;;;;;;;7.83;79.71;101814.03;4987826;28;20030;-70
2021/03/31 04:44:44;;;;;;;16.75;7.18;;;;;;;7.80;79.59;101814.13;4986326;28;20089;-70
2021/03/31 04:47:10;;;;;;;21.77;7.65;;;;;;;7.79;79.92;101817.72;4986288;28;20116;-70
2021/03/31 04:49:35;;;;;;;18.20;8.32;;;;;;;7.78;80.10;101815.13;4987511;28;20709;-70
2021/03/31 04:52:00;;;;;;;19.17;8.00;;;;;;;7.76;80.21;101806.28;4987079;28;20034;-70
2021/03/31 04:54:27;;;;;;;14.27;7.88;;;;;;;7.72;80.18;101806.38;4986173;28;20030;-70
2021/03/31 04:56:52;;;;;;;18.73;8.10;;;;;;;7.71;80.27;101812.63;4987382;28;20581;-70
2021/03/31 04:59:18;;;;;;;18.20;7.90;;;;;;;7.70;80.24;101807.38;4985420;28;20025;-70
2021/03/31 05:01:43;;;;;;;15.88;7.63;;;;;;;7.69;80.25;101809.16;4982261;28;20387;-70
2021/03/31 05:04:09;;;;;;;16.33;7.95;;;;;;;7.68;80.47;101807.41;4986010;28;20506;-70
2021/03/31 05:06:34;;;;;;;17.02;7.72;;;;;;;7.73;80.27;101799.22;4982107;28;20438;-70
2021/03/31 05:08:59;;;;;;;16.00;7.03;;;;;;;7.70;80.31;101799.34;4986234;28;20046;-70
2021/03/31 05:11:26;;;;;;;18.30;7.35;;;;;;;7.66;80.47;101803.03;4987845;28;20124;-70
2021/03/31 05:13:51;;;;;;;15.63;7.03;;;;;;;7.69;80.45;101810.97;4985497;28;20030;-70
2021/03/31 05:16:17;;;;;;;14.32;7.28;;;;;;;7.67;80.65;101803.00;4984711;28;20037;-70
2021/03/31 05:18:42;;;;;;;25.83;7.22;;;;;;;7.67;80.85;101804.78;4986886;28;20030;-70
2021/03/31 05:21:08;;;;;;;24.13;7.25;;;;;;;7.65;80.80;101806.66;4985602;28;20517;-70
2021/03/31 05:23:33;;;;;;;17.65;7.00;;;;;;;7.65;80.81;101806.66;4983886;28;20052;-70
2021/03/31 05:25:58;;;;;;;22.90;7.18;;;;;;;7.63;81.15;101806.72;4984694;28;20042;-70
2021/03/31 05:28:24;;;;;;;14.80;6.18;;;;;;;7.62;81.01;101812.09;4986464;28;20552;-70
2021/03/31 05:30:49;;;;;;;13.25;7.18;;;;;;;7.60;81.08;101808.59;4986753;28;20034;-70
2021/03/31 05:33:15;;;;;;;19.70;6.80;;;;;;;7.58;81.31;101807.81;4985425;28;20397;-70
2021/03/31 05:35:40;;;;;;;15.95;7.00;;;;;;;7.57;81.25;101808.72;4985806;28;20113;-70
2021/03/31 05:38:06;;;;;;;17.17;7.75;;;;;;;7.61;81.20;101805.00;4986496;28;20038;-70
2021/03/31 05:40:32;;;;;;;16.50;7.47;;;;;;;7.63;81.52;101804.03;4985596;28;20105;-70
2021/03/31 05:42:59;;;;;;;19.67;7.53;;;;;;;7.64;81.58;101800.44;4986604;28;20030;-70
2021/03/31 05:45:27;;;;;;;15.10;7.20;;;;;;;7.65;82.07;101799.50;4986490;28;20092;-70
2021/03/31 05:47:53;;;;;;;17.50;7.13;;;;;;;7.64;82.40;101794.22;4985383;28;20116;-70
2021/03/31 05:50:18;;;;;;;19.42;6.93;;;;;;;7.69;82.43;101792.25;4984531;28;20088;-70
2021/03/31 05:52:45;;;;;;;21.00;7.90;;;;;;;7.72;82.59;101792.13;4984700;28;20038;-70
2021/03/31 05:55:13;;;;;;;17.95;7.20;;;;;;;7.76;82.63;101795.59;4986202;28;20030;-70
2021/03/31 05:57:39;;;;;;;24.17;7.38;;;;;;;7.79;82.75;101790.13;4985286;28;20108;-70
2021/03/31 06:00:14;;;;;;;16.23;7.75;;;;;;;7.84;82.62;101790.84;4985004;28;20042;-70
2021/03/31 06:02:45;;;;;;;21.23;7.78;;;;;;;8.01;82.04;101794.66;4984088;28;20034;-70
2021/03/31 06:05:12;;;;;;;18.95;7.22;;;;;;;8.30;80.16;101790.00;4985510;28;20042;-70
2021/03/31 06:07:49;;;;;;;21.20;8.75;;;;;;;8.56;78.59;101797.97;4985370;28;20034;-70
2021/03/31 06:10:18;;;;;;;14.40;7.55;;;;;;;8.67;77.72;101801.09;4985524;28;20080;-70
2021/03/31 06:12:48;;;;;;;22.80;7.45;;;;;;;8.66;77.77;101799.34;4986248;28;20092;-70
2021/03/31 06:15:28;;;;;;;16.33;7.80;;;;;;;8.67;77.79;101795.72;4984094;28;20056;-70
2021/03/31 06:17:56;;;;;;;16.80;7.28;;;;;;;8.74;77.87;101804.38;4983842;28;20173;-70
2021/03/31 06:21:01;;;;;;;20.10;8.10;;;;;;;8.84;77.95;101800.41;4989881;28;20034;-71
2021/03/31 06:26:28;;;;;;;15.02;6.80;;;;;;;9.08;75.95;101803.91;4981112;28;20073;-70
2021/03/31 06:29:06;;;;;;;15.20;7.78;;;;;;;9.20;75.63;101801.59;4989824;28;20027;-70
2021/03/31 06:31:32;;;;;;;19.88;8.18;;;;;;;9.40;74.54;101800.75;4989566;28;20034;-70
2021/03/31 06:34:02;;;;;;;19.02;7.40;;;;;;;9.55;73.27;101796.56;4986980;28;20042;-70
2021/03/31 06:36:34;;;;;;;20.25;8.00;;;;;;;9.88;71.85;101804.94;4990930;28;20034;-71
2021/03/31 06:38:59;;;;;;;20.13;7.72;;;;;;;10.02;70.94;101802.53;4990271;28;20034;-71
2021/03/31 06:44:09;;;;;;;16.23;8.23;;;;;;;10.26;69.74;101800.56;4989134;28;20522;-71
2021/03/31 06:46:51;;;;;;;20.13;8.63;;;;;;;10.45;68.95;101796.09;4988934;28;20038;-71
2021/03/31 06:49:17;;;;;;;14.77;7.43;;;;;;;10.81;67.56;101798.84;4987142;28;20087;-71
2021/03/31 06:51:43;;;;;;;16.30;8.27;;;;;;;11.21;66.06;101804.03;4989221;28;20118;-70
2021/03/31 06:54:19;;;;;;;17.15;7.15;;;;;;;11.74;63.44;101795.06;4985285;28;20029;-71
2021/03/31 06:56:53;;;;;;;18.65;7.60;;;;;;;12.48;60.16;101796.44;4987228;28;20434;-71
2021/03/31 06:59:33;;;;;;;18.10;7.03;;;;;;;13.34;57.65;101797.84;4972339;28;20483;-71
2021/03/31 07:02:01;;;;;;;15.73;7.60;;;;;;;13.93;54.33;101807.78;4988241;28;20564;-71
2021/03/31 07:04:29;;;;;;;37.38;11.13;;;;;;;14.38;52.80;101811.31;4989073;28;20531;-71
2021/03/31 07:07:08;;;;;;;17.50;7.60;;;;;;;14.94;51.08;101807.66;4989928;28;20048;-71
2021/03/31 07:09:34;;;;;;;17.27;7.63;;;;;;;15.53;49.59;101802.88;4981260;28;20546;-71
2021/03/31 07:12:00;;;;;;;17.45;7.90;;;;;;;15.98;48.01;101797.00;4988172;28;20054;-71
2021/03/31 07:14:27;;;;;;;15.05;7.25;;;;;;;16.28;46.38;101799.41;4987634;28;20459;-71
2021/03/31 07:16:54;;;;;;;21.77;7.25;;;;;;;16.55;45.55;101801.94;4986981;28;20133;-71
2021/03/31 07:19:21;;;;;;;15.75;7.50;;;;;;;16.68;45.12;101800.13;4988217;28;20022;-72
2021/03/31 07:21:48;;;;;;;17.55;8.50;;;;;;;17.05;44.93;101794.69;4986733;28;20046;-71
2021/03/31 07:24:15;;;;;;;18.63;7.25;;;;;;;17.39;44.15;101799.34;4987235;28;20026;-71
2021/03/31 07:26:44;;;;;;;16.20;7.25;;;;;;;17.78;43.11;101796.31;4986630;28;20030;-71
2021/03/31 07:29:11;;;;;;;19.88;7.35;;;;;;;17.99;42.31;101792.91;4987670;28;20034;-71
2021/03/31 07:31:41;;;;;;;17.83;6.97;;;;;;;17.96;41.49;101798.59;4993031;28;20026;-71
2021/03/31 07:34:24;;;;;;;18.02;7.93;;;;;;;18.17;40.88;101799.63;4986329;28;20113;-72
2021/03/31 07:36:50;;;;;;;17.02;7.30;;;;;;;18.21;41.31;101792.94;4986809;28;20039;-72
2021/03/31 07:39:18;;;;;;;15.25;6.53;;;;;;;18.29;40.79;101795.06;4985949;28;20460;-72
2021/03/31 07:41:44;;;;;;;18.00;7.80;;;;;;;18.38;40.49;101794.34;4997576;28;20121;-72
2021/03/31 07:44:16;;;;;;;16.98;6.55;;;;;;;18.06;40.97;101786.00;4988098;28;20034;-72
2021/03/31 07:46:44;;;;;;;18.20;8.85;;;;;;;18.51;40.40;101795.97;4983417;28;20114;-72
2021/03/31 07:49:12;;;;;;;16.52;7.95;;;;;;;18.66;41.31;101785.69;4987196;28;20061;-72
2021/03/31 07:51:52;;;;;;;15.75;6.68;;;;;;;18.98;39.74;101799.41;4986186;28;20050;-72
2021/03/31 07:54:17;;;;;;;14.05;7.10;;;;;;;19.27;38.62;101795.09;4988695;28;20026;-72
2021/03/31 07:56:43;;;;;;;15.65;7.60;;;;;;;19.03;38.29;101794.44;4984328;28;20080;-72
2021/03/31 07:59:16;;;;;;;22.10;7.53;;;;;;;19.53;38.99;101792.06;4987538;28;20042;-72
2021/03/31 08:01:58;;;;;;;19.73;7.75;;;;;;;20.07;37.81;101800.94;4986688;28;20042;-72
2021/03/31 08:04:26;;;;;;;22.48;7.35;;;;;;;20.44;36.73;101804.06;4982767;28;20137;-72
2021/03/31 08:06:55;;;;;;;16.20;7.70;;;;;;;20.67;35.68;101804.75;4985406;28;20038;-72
2021/03/31 08:09:28;;;;;;;15.93;7.35;;;;;;;20.77;34.80;101805.66;4971039;28;20045;-72
2021/03/31 08:11:58;;;;;;;16.63;7.10;;;;;;;20.85;34.54;101803.09;4986347;28;20104;-72
2021/03/31 08:14:26;;;;;;;22.20;7.90;;;;;;;21.13;35.21;101806.03;4986960;28;20090;-72
2021/03/31 08:16:55;;;;;;;15.70;7.53;;;;;;;21.10;34.34;101806.31;4987045;28;20121;-72
2021/03/31 08:19:25;;;;;;;31.42;9.70;;;;;;;21.31;33.99;101805.22;4987749;28;20113;-72
2021/03/31 08:21:53;;;;;;;16.00;8.15;;;;;;;21.60;33.57;101805.25;4983865;28;20476;-72
2021/03/31 08:24:44;;;;;;;15.57;7.53;;;;;;;21.64;33.22;101805.84;4969049;28;20036;-72
2021/03/31 08:27:09;;;;;;;21.95;7.95;;;;;;;21.86;34.63;101812.88;4985574;28;20035;-72
2021/03/31 08:29:34;;;;;;;21.02;7.63;;;;;;;21.95;34.48;101809.28;4987017;28;20035;-72
2021/03/31 08:32:02;;;;;;;18.60;7.55;;;;;;;22.30;33.31;101809.50;4987498;28;20518;-72
2021/03/31 08:34:30;;;;;;;21.10;8.88;;;;;;;22.06;32.45;101800.94;4998157;28;20022;-73
2021/03/31 08:36:57;;;;;;;12.90;7.55;;;;;;;21.78;33.48;101797.22;4986152;28;20049;-72
2021/03/31 08:39:24;;;;;;;18.17;7.95;;;;;;;21.65;33.57;101802.97;4986123;28;20081;-72
2021/03/31 08:41:53;;;;;;;17.00;8.10;;;;;;;22.07;33.88;101797.19;4987168;28;20034;-72
2021/03/31 08:44:24;;;;;;;18.17;8.27;;;;;;;22.04;33.93;101795.59;4981731;28;20527;-72
2021/03/31 08:46:51;;;;;;;20.08;8.05;;;;;;;22.48;33.69;101802.25;4966885;28;20045;-72
2021/03/31 08:49:30;;;;;;;21.17;7.57;;;;;;;22.50;31.94;101794.78;4984266;28;20097;-73
2021/03/31 08:52:01;;;;;;;19.42;7.78;;;;;;;22.27;33.11;101793.41;4986677;28;20073;-72
2021/03/31 08:54:44;;;;;;;18.00;7.72;;;;;;;22.74;33.02;101790.66;4979940;28;20058;-72
2021/03/31 08:57:13;;;;;;;18.45;8.07;;;;;;;22.74;34.24;101794.25;4987642;28;20030;-72
2021/03/31 08:59:42;;;;;;;14.30;7.68;;;;;;;22.96;32.62;101796.59;4988048;28;20109;-72
2021/03/31 09:02:08;;;;;;;16.95;7.85;;;;;;;23.33;34.10;101782.78;4985928;28;20116;-72
2021/03/31 09:04:34;;;;;;;16.08;7.82;;;;;;;23.30;32.85;101788.59;4983375;28;20105;-72
2021/03/31 09:07:02;;;;;;;17.52;7.90;;;;;;;23.48;32.06;101796.00;4986484;28;20130;-72
2021/03/31 09:09:35;;;;;;;14.00;7.70;;;;;;;23.59;31.41;101784.78;4994456;28;20027;-72
2021/03/31 09:12:12;;;;;;;15.60;7.13;;;;;;;23.63;31.62;101783.47;4984572;28;20186;-72
2021/03/31 09:14:47;;;;;;;19.10;8.18;;;;;;;23.60;31.58;101778.28;4985095;28;20033;-72
2021/03/31 09:17:23;;;;;;;25.33;8.43;;;;;;;23.64;33.84;101774.19;4986082;28;20069;-73
2021/03/31 09:19:53;;;;;;;14.23;7.65;;;;;;;23.75;31.73;101776.72;4985223;28;20045;-73
2021/03/31 09:22:23;;;;;;;20.98;8.18;;;;;;;23.64;33.10;101774.19;4986664;28;20121;-73
2021/03/31 09:24:50;;;;;;;14.93;7.93;;;;;;;23.56;29.85;101775.00;4985327;28;20042;-74
2021/03/31 09:27:27;;;;;;;19.02;7.65;;;;;;;23.45;32.08;101768.88;4983764;28;20092;-73
2021/03/31 09:29:54;;;;;;;16.38;8.15;;;;;;;23.50;31.63;101772.03;4985800;28;20121;-73
2021/03/31 09:32:25;;;;;;;18.30;7.90;;;;;;;23.59;34.19;101760.13;4986541;28;20113;-73
2021/03/31 09:34:51;;;;;;;17.83;8.30;;;;;;;23.71;32.06;101764.31;4979689;28;20026;-73
2021/03/31 09:37:19;;;;;;;19.45;7.70;;;;;;;23.67;32.22;101762.94;4982894;28;20523;-73
2021/03/31 09:39:48;;;;;;;22.65;8.38;;;;;;;23.89;31.82;101769.78;4986216;28;20088;-73
2021/03/31 09:42:36;;;;;;;16.45;7.88;;;;;;;23.66;29.54;101777.66;4984690;28;20030;-73
2021/03/31 09:45:07;;;;;;;11.25;7.00;;;;;;;23.55;32.13;101766.94;4963952;28;20406;-73
2021/03/31 09:47:34;;;;;;;20.50;8.25;;;;;;;23.52;31.75;101769.97;4985572;28;20450;-75
2021/03/31 09:50:04;;;;;;;16.80;7.75;;;;;;;23.57;31.00;101767.66;4984392;28;20038;-73
2021/03/31 09:52:31;;;;;;;19.60;7.85;;;;;;;23.57;31.89;101764.91;4988021;28;20117;-73
2021/03/31 09:55:03;;;;;;;16.98;7.20;;;;;;;23.57;32.30;101767.66;4991705;28;20034;-73
2021/03/31 09:57:29;;;;;;;15.18;8.18;;;;;;;23.57;32.62;101756.69;4989340;28;20422;-73
2021/03/31 10:00:04;;;;;;;16.63;8.48;;;;;;;23.44;31.10;101750.72;4982991;28;20026;-73
2021/03/31 10:02:39;;;;;;;20.27;8.95;;;;;;;23.53;32.42;101749.78;4989428;28;20065;-73
2021/03/31 10:05:08;;;;;;;17.58;8.35;;;;;;;23.59;31.34;101749.16;4991643;28;20038;-73
2021/03/31 10:07:34;;;;;;;13.93;6.82;;;;;;;23.53;31.46;101749.78;4990506;28;20011;-73
2021/03/31 10:09:59;;;;;;;19.23;8.60;;;;;;;23.73;33.31;101740.38;4987451;28;20622;-73
2021/03/31 10:12:31;;;;;;;20.10;7.72;;;;;;;23.76;31.58;101740.91;4987380;28;20041;-73
2021/03/31 10:14:58;;;;;;;15.73;7.88;;;;;;;23.57;32.08;101742.97;4988013;28;20399;-73
2021/03/31 10:17:29;;;;;;;14.25;8.07;;;;;;;23.84;30.96;101745.59;4987968;28;20038;-73
2021/03/31 10:20:14;;;;;;;15.00;7.80;;;;;;;23.92;32.41;101739.31;4988654;28;20030;-73
2021/03/31 10:22:41;;;;;;;17.08;7.90;;;;;;;23.87;30.88;101742.53;4989784;28;20031;-73
2021/03/31 10:25:07;;;;;;;19.02;8.63;;;;;;;23.98;30.85;101734.03;4987225;28;20391;-73
2021/03/31 10:27:45;;;;;;;18.10;8.07;;;;;;;24.06;30.88;101734.09;4983642;28;20653;-73
2021/03/31 10:30:29;;;;;;;16.35;8.38;;;;;;;24.23;31.01;101731.47;4984060;28;20426;-73
2021/03/31 10:32:56;;;;;;;20.10;8.02;;;;;;;24.26;31.65;101725.66;4985571;28;20034;-73
2021/03/31 10:35:51;;;;;;;12.75;7.60;;;;;;;24.12;31.92;101727.97;4986224;28;20046;-73
2021/03/31 10:38:42;;;;;;;17.77;8.13;;;;;;;24.24;29.34;101733.22;4988701;28;20073;-73
2021/03/31 10:49:31;;;;;;;17.60;8.60;;;;;;;24.43;30.60;101706.38;4984431;28;20038;-73
2021/03/31 10:51:59;;;;;;;17.85;8.07;;;;;;;24.31;31.73;101706.84;4982975;28;20034;-73
2021/03/31 10:54:27;;;;;;;15.63;8.57;;;;;;;24.50;31.00;101710.16;4987198;28;20038;-73
2021/03/31 10:57:04;;;;;;;16.33;8.10;;;;;;;24.51;30.54;101708.28;4971671;28;20439;-74
2021/03/31 10:59:29;;;;;;;14.18;7.85;;;;;;;24.41;31.13;101696.59;4988891;28;20036;-73
2021/03/31 11:01:55;;;;;;;17.92;8.05;;;;;;;24.67;30.78;101696.53;4986436;28;20038;-73
2021/03/31 11:04:20;;;;;;;14.77;8.18;;;;;;;24.71;32.40;101687.78;4972394;28;20056;-73
2021/03/31 11:06:46;;;;;;;14.73;8.07;;;;;;;24.79;31.54;101690.56;4989992;28;20093;-73
2021/03/31 11:09:11;;;;;;;15.48;7.70;;;;;;;24.77;31.33;101681.63;4989970;28;20787;-73
2021/03/31 11:11:36;;;;;;;15.93;8.07;;;;;;;24.94;28.88;101688.88;4986048;28;20038;-74
2021/03/31 11:14:02;;;;;;;18.50;8.07;;;;;;;25.05;29.69;101684.13;4988526;28;20053;-74
2021/03/31 11:16:27;;;;;;;19.55;8.95;;;;;;;25.02;28.91;101679.81;4988101;28;20024;-74
2021/03/31 11:19:03;;;;;;;14.98;8.82;;;;;;;25.03;30.12;101680.66;4988579;28;20034;-73
2021/03/31 11:26:57;;;;;;;21.15;8.48;;;;;;;25.19;30.14;101664.19;4988901;28;20043;-73
2021/03/31 11:29:22;;;;;;;16.80;7.68;;;;;;;25.26;31.17;101655.09;4989353;28;20045;-74
2021/03/31 11:31:48;;;;;;;15.00;8.32;;;;;;;25.25;30.80;101655.25;4985062;28;20116;-74
2021/03/31 11:34:13;;;;;;;19.23;7.18;;;;;;;25.17;32.20;101655.28;4990102;28;20317;-73
2021/03/31 11:36:39;;;;;;;17.50;8.02;;;;;;;25.58;28.75;101661.66;4989375;28;20038;-73
2021/03/31 11:39:05;;;;;;;30.10;9.32;;;;;;;25.72;28.52;101660.97;4987336;28;20025;-74
2021/03/31 11:41:30;;;;;;;17.02;7.93;;;;;;;25.63;27.72;101651.84;4983187;28;20136;-74
2021/03/31 11:43:56;;;;;;;17.02;7.78;;;;;;;25.49;29.58;101652.50;4982976;28;20045;-74
2021/03/31 11:46:21;;;;;;;14.23;7.35;;;;;;;25.46;30.19;101647.38;4988100;28;20388;-74
2021/03/31 11:48:47;;;;;;;11.63;7.55;;;;;;;25.64;30.19;101645.31;4989650;28;20545;-74